Time,TemperatureF,DewpointF,PressureIn,WindDirection,WindDirectionDegrees,WindSpeedMPH,WindSpeedGustMPH,Humidity,HourlyPrecipIn,Conditions,Clouds,dailyrainin,SoftwareType,DateUTC
2013-01-19 00:00:00,54.9,43.8,30.23,North,350,4.0,9.0,66,0.00,,,0.00,VWS V14.01,2013-01-19 05:00:00,
2013-01-19 00:07:00,54.5,43.4,30.22,NNW,345,8.0,12.0,66,0.00,,,0.00,VWS V14.01,2013-01-19 05:07:00,
2013-01-19 00:10:00,54.5,43.4,30.22,NNW,345,8.0,12.0,66,0.00,,,0.00,VWS V14.01,2013-01-19 05:10:00,
2013-01-19 00:17:00,54.1,43.0,30.22,NNW,341,4.0,9.0,66,0.00,,,0.00,VWS V14.01,2013-01-19 05:17:00,
2013-01-19 00:20:00,54.1,43.0,30.22,NNW,341,4.0,9.0,66,0.00,,,0.00,VWS V14.01,2013-01-19 05:20:00,
2013-01-19 00:27:00,54.1,43.0,30.22,North,360,3.0,11.0,66,0.00,,,0.00,VWS V14.01,2013-01-19 05:27:00,
2013-01-19 00:30:00,54.1,43.0,30.22,North,360,3.0,11.0,66,0.00,,,0.00,VWS V14.01,2013-01-19 05:30:00,
2013-01-19 00:37:00,54.1,43.0,30.22,NNW,348,8.0,12.0,66,0.00,,,0.00,VWS V14.01,2013-01-19 05:37:00,
2013-01-19 00:40:00,54.1,43.0,30.22,NNW,348,8.0,12.0,66,0.00,,,0.00,VWS V14.01,2013-01-19 05:40:00,
2013-01-19 00:47:00,54.1,43.0,30.22,NNW,338,8.0,12.0,66,0.00,,,0.00,VWS V14.01,2013-01-19 05:47:00,
2013-01-19 00:50:00,54.1,43.0,30.22,NNW,338,8.0,12.0,66,0.00,,,0.00,VWS V14.01,2013-01-19 05:50:00,
2013-01-19 00:57:00,54.1,43.0,30.22,NNW,346,5.0,10.0,66,0.00,,,0.00,VWS V14.01,2013-01-19 05:57:00,
2013-01-19 01:00:00,54.1,43.0,30.22,NNW,346,5.0,10.0,66,0.00,,,0.00,VWS V14.01,2013-01-19 06:00:00,
2013-01-19 01:07:00,54.0,42.9,30.21,North,9,6.0,10.0,66,0.00,,,0.00,VWS V14.01,2013-01-19 06:07:00,
2013-01-19 01:10:00,54.0,42.9,30.21,North,9,6.0,10.0,66,0.00,,,0.00,VWS V14.01,2013-01-19 06:10:00,
2013-01-19 01:17:00,54.0,42.9,30.21,NNW,344,7.0,11.0,66,0.00,,,0.00,VWS V14.01,2013-01-19 06:17:00,
2013-01-19 01:20:00,54.0,42.9,30.21,NNW,344,7.0,11.0,66,0.00,,,0.00,VWS V14.01,2013-01-19 06:20:00,
2013-01-19 01:27:00,54.0,42.9,30.21,North,11,5.0,12.0,66,0.00,,,0.00,VWS V14.01,2013-01-19 06:27:00,
2013-01-19 01:30:00,54.0,42.9,30.21,North,11,5.0,12.0,66,0.00,,,0.00,VWS V14.01,2013-01-19 06:30:00,
2013-01-19 01:37:00,54.0,42.9,30.21,North,355,4.0,11.0,66,0.00,,,0.00,VWS V14.01,2013-01-19 06:37:00,
2013-01-19 01:40:00,54.0,42.9,30.21,North,355,4.0,11.0,66,0.00,,,0.00,VWS V14.01,2013-01-19 06:40:00,
2013-01-19 01:47:00,54.0,42.9,30.21,NNE,15,6.0,8.0,66,0.00,,,0.00,VWS V14.01,2013-01-19 06:47:00,
2013-01-19 01:50:00,54.0,42.9,30.21,NNE,15,6.0,8.0,66,0.00,,,0.00,VWS V14.01,2013-01-19 06:50:00,
2013-01-19 01:57:00,53.9,43.2,30.21,NNW,327,7.0,9.0,67,0.00,,,0.00,VWS V14.01,2013-01-19 06:57:00,
2013-01-19 02:00:00,53.9,43.2,30.21,NNW,327,7.0,9.0,67,0.00,,,0.00,VWS V14.01,2013-01-19 07:00:00,
2013-01-19 02:07:00,53.8,43.1,30.21,NNW,338,6.0,9.0,67,0.00,,,0.00,VWS V14.01,2013-01-19 07:07:00,
2013-01-19 02:10:00,53.8,43.1,30.21,NNW,338,6.0,9.0,67,0.00,,,0.00,VWS V14.01,2013-01-19 07:10:00,
2013-01-19 02:17:00,53.8,43.1,30.20,NNW,340,7.0,9.0,67,0.00,,,0.00,VWS V14.01,2013-01-19 07:17:00,
2013-01-19 02:20:00,53.8,43.1,30.20,NNW,340,7.0,9.0,67,0.00,,,0.00,VWS V14.01,2013-01-19 07:20:00,
2013-01-19 02:27:00,53.8,43.1,30.20,North,5,3.0,10.0,67,0.00,,,0.00,VWS V14.01,2013-01-19 07:27:00,
2013-01-19 02:30:00,53.8,43.1,30.20,North,5,3.0,10.0,67,0.00,,,0.00,VWS V14.01,2013-01-19 07:30:00,
2013-01-19 02:38:00,53.8,43.1,30.20,North,360,4.0,9.0,67,0.00,,,0.00,VWS V14.01,2013-01-19 07:38:00,
2013-01-19 02:40:00,53.8,43.1,30.20,North,360,4.0,9.0,67,0.00,,,0.00,VWS V14.01,2013-01-19 07:40:00,
2013-01-19 02:47:00,53.9,43.2,30.20,North,355,4.0,9.0,67,0.00,,,0.00,VWS V14.01,2013-01-19 07:47:00,
2013-01-19 02:50:00,53.9,43.2,30.20,North,355,4.0,9.0,67,0.00,,,0.00,VWS V14.01,2013-01-19 07:50:00,
2013-01-19 02:57:00,54.0,43.3,30.20,North,355,5.0,10.0,67,0.00,,,0.00,VWS V14.01,2013-01-19 07:57:00,
2013-01-19 03:00:00,54.0,43.3,30.20,North,355,5.0,10.0,67,0.00,,,0.00,VWS V14.01,2013-01-19 08:00:00,
2013-01-19 03:07:00,54.2,43.5,30.19,NNW,340,5.0,10.0,67,0.00,,,0.00,VWS V14.01,2013-01-19 08:07:00,
2013-01-19 03:10:00,54.2,43.5,30.19,NNW,340,5.0,10.0,67,0.00,,,0.00,VWS V14.01,2013-01-19 08:10:00,
2013-01-19 03:17:00,54.4,43.7,30.19,NNW,338,6.0,10.0,67,0.00,,,0.00,VWS V14.01,2013-01-19 08:17:00,
2013-01-19 03:20:00,54.4,43.7,30.19,NNW,338,6.0,10.0,67,0.00,,,0.00,VWS V14.01,2013-01-19 08:20:00,
2013-01-19 03:27:00,54.6,43.9,30.20,North,5,7.0,11.0,67,0.00,,,0.00,VWS V14.01,2013-01-19 08:27:00,
2013-01-19 03:30:00,54.6,43.9,30.20,North,5,7.0,11.0,67,0.00,,,0.00,VWS V14.01,2013-01-19 08:30:00,
2013-01-19 03:37:00,54.7,44.0,30.20,NNW,347,6.0,11.0,67,0.00,,,0.00,VWS V14.01,2013-01-19 08:37:00,
2013-01-19 03:40:00,54.7,44.0,30.20,NNW,347,6.0,11.0,67,0.00,,,0.00,VWS V14.01,2013-01-19 08:40:00,
2013-01-19 03:47:00,54.8,44.1,30.20,North,355,5.0,10.0,67,0.00,,,0.00,VWS V14.01,2013-01-19 08:47:00,
2013-01-19 03:50:00,54.8,44.1,30.20,North,355,5.0,10.0,67,0.00,,,0.00,VWS V14.01,2013-01-19 08:50:00,
2013-01-19 03:57:00,54.8,44.1,30.19,NW,324,4.0,9.0,67,0.00,,,0.00,VWS V14.01,2013-01-19 08:57:00,
2013-01-19 04:00:00,54.8,44.1,30.19,NW,324,4.0,9.0,67,0.00,,,0.00,VWS V14.01,2013-01-19 09:00:00,
2013-01-19 04:07:00,54.8,44.1,30.20,NNW,335,4.0,8.0,67,0.00,,,0.00,VWS V14.01,2013-01-19 09:07:00,
2013-01-19 04:10:00,54.8,44.1,30.20,NNW,335,4.0,8.0,67,0.00,,,0.00,VWS V14.01,2013-01-19 09:10:00,
2013-01-19 04:17:00,54.8,44.1,30.20,North,355,2.0,6.0,67,0.00,,,0.00,VWS V14.01,2013-01-19 09:17:00,
2013-01-19 04:20:00,54.8,44.1,30.20,North,355,2.0,6.0,67,0.00,,,0.00,VWS V14.01,2013-01-19 09:20:00,
2013-01-19 04:27:00,54.9,44.5,30.20,North,360,5.0,8.0,68,0.00,,,0.00,VWS V14.01,2013-01-19 09:27:00,
2013-01-19 04:30:00,54.9,44.5,30.20,North,360,5.0,8.0,68,0.00,,,0.00,VWS V14.01,2013-01-19 09:30:00,
2013-01-19 04:37:00,54.9,44.5,30.19,North,355,6.0,10.0,68,0.00,,,0.00,VWS V14.01,2013-01-19 09:37:00,
2013-01-19 04:40:00,54.9,44.5,30.19,North,355,6.0,10.0,68,0.00,,,0.00,VWS V14.01,2013-01-19 09:40:00,
2013-01-19 04:47:00,54.9,44.5,30.20,North,5,9.0,11.0,68,0.00,,,0.00,VWS V14.01,2013-01-19 09:47:00,
2013-01-19 04:50:00,54.9,44.5,30.20,North,5,9.0,11.0,68,0.00,,,0.00,VWS V14.01,2013-01-19 09:50:00,
2013-01-19 04:57:00,55.0,44.7,30.19,NNW,344,7.0,12.0,68,0.00,,,0.00,VWS V14.01,2013-01-19 09:57:00,
2013-01-19 05:00:00,55.0,44.7,30.19,NNW,344,7.0,12.0,68,0.00,,,0.00,VWS V14.01,2013-01-19 10:00:00,
2013-01-19 05:07:00,55.1,44.7,30.19,North,351,7.0,10.0,68,0.00,,,0.00,VWS V14.01,2013-01-19 10:07:00,
2013-01-19 05:10:00,55.1,44.7,30.19,North,351,7.0,10.0,68,0.00,,,0.00,VWS V14.01,2013-01-19 10:10:00,
2013-01-19 05:17:00,55.2,44.8,30.19,North,355,7.0,14.0,68,0.00,,,0.00,VWS V14.01,2013-01-19 10:17:00,
2013-01-19 05:20:00,55.2,44.8,30.19,North,355,7.0,14.0,68,0.00,,,0.00,VWS V14.01,2013-01-19 10:20:00,
2013-01-19 05:27:00,55.3,44.9,30.19,NNW,347,8.0,9.0,68,0.00,,,0.00,VWS V14.01,2013-01-19 10:27:00,
2013-01-19 05:30:00,55.3,44.9,30.19,NNW,347,8.0,9.0,68,0.00,,,0.00,VWS V14.01,2013-01-19 10:30:00,
2013-01-19 05:37:00,55.5,45.1,30.19,North,360,6.0,9.0,68,0.00,,,0.00,VWS V14.01,2013-01-19 10:37:00,
2013-01-19 05:40:00,55.5,45.1,30.19,North,360,6.0,9.0,68,0.00,,,0.00,VWS V14.01,2013-01-19 10:40:00,
2013-01-19 05:47:00,55.6,45.2,30.20,North,355,4.0,9.0,68,0.00,,,0.00,VWS V14.01,2013-01-19 10:47:00,
2013-01-19 05:50:00,55.6,45.2,30.20,North,355,4.0,9.0,68,0.00,,,0.00,VWS V14.01,2013-01-19 10:50:00,
2013-01-19 05:57:00,55.7,45.3,30.20,North,355,4.0,9.0,68,0.00,,,0.00,VWS V14.01,2013-01-19 10:57:00,
2013-01-19 06:00:00,55.7,45.3,30.20,North,355,4.0,9.0,68,0.00,,,0.00,VWS V14.01,2013-01-19 11:00:00,
2013-01-19 06:08:00,55.8,45.4,30.20,North,355,5.0,9.0,68,0.00,,,0.00,VWS V14.01,2013-01-19 11:08:00,
2013-01-19 06:10:00,55.8,45.4,30.20,North,355,5.0,9.0,68,0.00,,,0.00,VWS V14.01,2013-01-19 11:10:00,
2013-01-19 06:20:00,55.9,45.5,30.21,NNW,345,5.0,10.0,68,0.00,,,0.00,VWS V14.01,2013-01-19 11:20:00,
2013-01-19 06:30:00,55.9,45.5,30.21,North,360,8.0,10.0,68,0.00,,,0.00,VWS V14.01,2013-01-19 11:30:00,
2013-01-19 06:40:00,56.0,45.6,30.21,NNE,13,6.0,8.0,68,0.00,,,0.00,VWS V14.01,2013-01-19 11:40:00,
2013-01-19 06:50:00,56.0,45.6,30.21,NNW,347,2.0,9.0,68,0.00,,,0.00,VWS V14.01,2013-01-19 11:50:00,
2013-01-19 07:00:00,55.9,45.1,30.21,NW,325,6.0,7.0,67,0.00,,,0.00,VWS V14.01,2013-01-19 12:00:00,
2013-01-19 07:10:00,55.9,45.5,30.22,NNW,346,5.0,8.0,68,0.00,,,0.00,VWS V14.01,2013-01-19 12:10:00,
2013-01-19 07:20:00,55.9,45.5,30.22,North,351,6.0,7.0,68,0.00,,,0.00,VWS V14.01,2013-01-19 12:20:00,
2013-01-19 07:30:00,56.0,45.6,30.22,North,351,4.0,6.0,68,0.00,,,0.00,VWS V14.01,2013-01-19 12:30:00,
2013-01-19 07:40:00,56.0,45.6,30.22,North,351,5.0,5.0,68,0.00,,,0.00,VWS V14.01,2013-01-19 12:40:00,
2013-01-19 07:50:00,56.0,45.6,30.22,North,350,3.0,6.0,68,0.00,,,0.00,VWS V14.01,2013-01-19 12:50:00,
2013-01-19 07:57:00,56.1,45.7,30.22,NNW,346,5.0,7.0,68,0.00,,,0.00,VWS V14.01,2013-01-19 12:57:00,
2013-01-19 08:00:00,56.1,45.7,30.22,NNW,346,5.0,7.0,68,0.00,,,0.00,VWS V14.01,2013-01-19 13:00:00,
2013-01-19 08:07:00,56.4,46.4,30.22,North,5,5.0,8.0,69,0.00,,,0.00,VWS V14.01,2013-01-19 13:07:00,
2013-01-19 08:10:00,56.4,46.4,30.22,North,5,5.0,8.0,69,0.00,,,0.00,VWS V14.01,2013-01-19 13:10:00,
2013-01-19 08:17:00,56.8,46.4,30.23,North,355,2.0,9.0,68,0.00,,,0.00,VWS V14.01,2013-01-19 13:17:00,
2013-01-19 08:20:00,56.8,46.4,30.23,North,355,2.0,9.0,68,0.00,,,0.00,VWS V14.01,2013-01-19 13:20:00,
2013-01-19 08:27:00,57.0,46.6,30.23,NNE,24,8.0,10.0,68,0.00,,,0.00,VWS V14.01,2013-01-19 13:27:00,
2013-01-19 08:30:00,57.0,46.6,30.23,NNE,24,8.0,10.0,68,0.00,,,0.00,VWS V14.01,2013-01-19 13:30:00,
2013-01-19 08:37:00,57.5,47.0,30.23,North,349,9.0,11.0,68,0.00,,,0.00,VWS V14.01,2013-01-19 13:37:00,
2013-01-19 08:40:00,57.5,47.0,30.23,North,349,9.0,11.0,68,0.00,,,0.00,VWS V14.01,2013-01-19 13:40:00,
2013-01-19 08:48:00,58.0,47.1,30.23,North,11,6.0,13.0,67,0.00,,,0.00,VWS V14.01,2013-01-19 13:48:00,
2013-01-19 08:50:00,58.0,47.1,30.23,North,11,6.0,13.0,67,0.00,,,0.00,VWS V14.01,2013-01-19 13:50:00,
2013-01-19 08:57:00,60.2,48.8,30.24,North,5,7.0,12.0,66,0.00,,,0.00,VWS V14.01,2013-01-19 13:57:00,
2013-01-19 09:00:00,60.2,48.8,30.24,North,5,7.0,12.0,66,0.00,,,0.00,VWS V14.01,2013-01-19 14:00:00,
2013-01-19 09:07:00,61.6,48.9,30.23,NNE,26,4.0,11.0,63,0.00,,,0.00,VWS V14.01,2013-01-19 14:07:00,
2013-01-19 09:10:00,61.6,48.9,30.23,NNE,26,4.0,11.0,63,0.00,,,0.00,VWS V14.01,2013-01-19 14:10:00,
2013-01-19 09:17:00,61.6,48.9,30.23,North,11,7.0,13.0,63,0.00,,,0.00,VWS V14.01,2013-01-19 14:17:00,
2013-01-19 09:20:00,61.6,48.9,30.23,North,11,7.0,13.0,63,0.00,,,0.00,VWS V14.01,2013-01-19 14:20:00,
2013-01-19 09:27:00,62.4,49.2,30.24,NE,36,11.0,14.0,62,0.00,,,0.00,VWS V14.01,2013-01-19 14:27:00,
2013-01-19 09:30:00,62.4,49.2,30.24,NE,36,11.0,14.0,62,0.00,,,0.00,VWS V14.01,2013-01-19 14:30:00,
2013-01-19 09:37:00,63.1,49.5,30.24,NE,37,5.0,13.0,61,0.00,,,0.00,VWS V14.01,2013-01-19 14:37:00,
2013-01-19 09:40:00,63.1,49.5,30.24,NE,37,5.0,13.0,61,0.00,,,0.00,VWS V14.01,2013-01-19 14:40:00,
2013-01-19 09:47:00,63.9,50.2,30.24,NE,40,9.0,12.0,61,0.00,,,0.00,VWS V14.01,2013-01-19 14:47:00,
2013-01-19 09:50:00,63.9,50.2,30.24,NE,40,9.0,12.0,61,0.00,,,0.00,VWS V14.01,2013-01-19 14:50:00,
2013-01-19 09:58:00,65.2,51.0,30.24,NNE,28,14.0,16.0,60,0.00,,,0.00,VWS V14.01,2013-01-19 14:58:00,
2013-01-19 10:00:00,65.2,51.0,30.24,NNE,28,14.0,16.0,60,0.00,,,0.00,VWS V14.01,2013-01-19 15:00:00,
2013-01-19 10:07:00,66.6,51.4,30.24,NE,51,4.0,14.0,58,0.00,,,0.00,VWS V14.01,2013-01-19 15:07:00,
2013-01-19 10:10:00,66.6,51.4,30.24,NE,51,4.0,14.0,58,0.00,,,0.00,VWS V14.01,2013-01-19 15:10:00,
2013-01-19 10:17:00,67.2,51.5,30.24,NNE,28,7.0,16.0,57,0.00,,,0.00,VWS V14.01,2013-01-19 15:17:00,
2013-01-19 10:20:00,67.2,51.5,30.24,NNE,28,7.0,16.0,57,0.00,,,0.00,VWS V14.01,2013-01-19 15:20:00,
2013-01-19 10:27:00,67.7,51.5,30.25,NE,38,17.0,18.0,56,0.00,,,0.00,VWS V14.01,2013-01-19 15:27:00,
2013-01-19 10:30:00,67.7,51.5,30.25,NE,38,17.0,18.0,56,0.00,,,0.00,VWS V14.01,2013-01-19 15:30:00,
2013-01-19 10:38:00,67.7,51.5,30.24,ENE,61,12.0,18.0,56,0.00,,,0.00,VWS V14.01,2013-01-19 15:38:00,
2013-01-19 10:40:00,67.7,51.5,30.24,ENE,61,12.0,18.0,56,0.00,,,0.00,VWS V14.01,2013-01-19 15:40:00,
2013-01-19 10:47:00,68.8,52.5,30.24,ENE,66,3.0,17.0,56,0.00,,,0.00,VWS V14.01,2013-01-19 15:47:00,
2013-01-19 10:50:00,68.8,52.5,30.24,ENE,66,3.0,17.0,56,0.00,,,0.00,VWS V14.01,2013-01-19 15:50:00,
2013-01-19 10:57:00,69.1,52.8,30.24,NE,45,11.0,18.0,56,0.00,,,0.00,VWS V14.01,2013-01-19 15:57:00,
2013-01-19 11:00:00,69.1,52.8,30.24,NE,45,11.0,18.0,56,0.00,,,0.00,VWS V14.01,2013-01-19 16:00:00,
2013-01-19 11:07:00,69.5,53.1,30.23,ENE,69,11.0,18.0,56,0.00,,,0.00,VWS V14.01,2013-01-19 16:07:00,
2013-01-19 11:10:00,69.5,53.1,30.23,ENE,69,11.0,18.0,56,0.00,,,0.00,VWS V14.01,2013-01-19 16:10:00,
2013-01-19 11:17:00,69.5,52.6,30.23,ENE,64,7.0,18.0,55,0.00,,,0.00,VWS V14.01,2013-01-19 16:17:00,
2013-01-19 11:20:00,69.5,52.6,30.23,ENE,64,7.0,18.0,55,0.00,,,0.00,VWS V14.01,2013-01-19 16:20:00,
2013-01-19 11:27:00,70.0,53.1,30.23,ENE,64,7.0,18.0,55,0.00,,,0.00,VWS V14.01,2013-01-19 16:27:00,
2013-01-19 11:30:00,70.0,53.1,30.23,ENE,64,7.0,18.0,55,0.00,,,0.00,VWS V14.01,2013-01-19 16:30:00,
2013-01-19 11:37:00,70.7,53.8,30.22,NE,53,8.0,17.0,55,0.00,,,0.00,VWS V14.01,2013-01-19 16:37:00,
2013-01-19 11:40:00,70.7,53.8,30.22,NE,53,8.0,17.0,55,0.00,,,0.00,VWS V14.01,2013-01-19 16:40:00,
2013-01-19 11:48:00,70.9,54.0,30.22,East,88,12.0,21.0,55,0.00,,,0.00,VWS V14.01,2013-01-19 16:48:00,
2013-01-19 11:50:00,70.9,53.9,30.22,East,88,12.0,21.0,55,0.00,,,0.00,VWS V14.01,2013-01-19 16:50:00,
2013-01-19 11:57:00,71.2,54.2,30.21,NNE,24,7.0,19.0,55,0.00,,,0.00,VWS V14.01,2013-01-19 16:57:00,
2013-01-19 12:00:00,71.2,54.2,30.21,NNE,24,7.0,19.0,55,0.00,,,0.00,VWS V14.01,2013-01-19 17:00:00,
2013-01-19 12:07:00,71.3,54.3,30.20,East,80,7.0,18.0,55,0.00,,,0.00,VWS V14.01,2013-01-19 17:07:00,
2013-01-19 12:10:00,71.3,54.3,30.20,East,80,7.0,18.0,55,0.00,,,0.00,VWS V14.01,2013-01-19 17:10:00,
2013-01-19 12:20:00,71.2,54.2,30.19,ESE,105,11.0,22.0,55,0.00,,,0.00,VWS V14.01,2013-01-19 17:20:00,
2013-01-19 12:27:00,72.7,55.6,30.19,ENE,60,10.0,18.0,55,0.00,,,0.00,VWS V14.01,2013-01-19 17:27:00,
2013-01-19 12:30:00,72.7,55.6,30.19,ENE,60,10.0,18.0,55,0.00,,,0.00,VWS V14.01,2013-01-19 17:30:00,
2013-01-19 12:38:00,73.4,56.3,30.18,NE,45,11.0,17.0,55,0.00,,,0.00,VWS V14.01,2013-01-19 17:38:00,
2013-01-19 12:40:00,73.4,56.3,30.18,NE,45,11.0,17.0,55,0.00,,,0.00,VWS V14.01,2013-01-19 17:40:00,
2013-01-19 12:47:00,72.5,55.4,30.17,NE,53,11.0,22.0,55,0.00,,,0.00,VWS V14.01,2013-01-19 17:47:00,
2013-01-19 12:50:00,72.5,55.4,30.17,NE,53,11.0,22.0,55,0.00,,,0.00,VWS V14.01,2013-01-19 17:50:00,
2013-01-19 12:58:00,73.9,56.7,30.17,NE,40,8.0,17.0,55,0.00,,,0.00,VWS V14.01,2013-01-19 17:58:00,
2013-01-19 13:00:00,73.9,56.7,30.17,NE,40,8.0,17.0,55,0.00,,,0.00,VWS V14.01,2013-01-19 18:00:00,
2013-01-19 13:08:00,74.7,58.0,30.16,ENE,61,7.0,15.0,56,0.00,,,0.00,VWS V14.01,2013-01-19 18:08:00,
2013-01-19 13:10:00,74.7,58.0,30.16,ENE,61,7.0,15.0,56,0.00,,,0.00,VWS V14.01,2013-01-19 18:10:00,
2013-01-19 13:20:00,74.0,56.8,30.15,ENE,67,8.0,18.0,55,0.00,,,0.00,VWS V14.01,2013-01-19 18:20:00,
2013-01-19 13:30:00,73.0,56.4,30.14,ENE,66,7.0,18.0,56,0.00,,,0.00,VWS V14.01,2013-01-19 18:30:00,
2013-01-19 13:37:00,73.7,57.0,30.14,NNE,32,11.0,18.0,56,0.00,,,0.00,VWS V14.01,2013-01-19 18:37:00,
2013-01-19 13:40:00,73.7,57.0,30.14,NNE,32,11.0,18.0,56,0.00,,,0.00,VWS V14.01,2013-01-19 18:40:00,
2013-01-19 13:47:00,72.8,56.2,30.13,ENE,76,5.0,17.0,56,0.00,,,0.00,VWS V14.01,2013-01-19 18:47:00,
2013-01-19 13:50:00,72.8,56.2,30.13,ENE,76,5.0,17.0,56,0.00,,,0.00,VWS V14.01,2013-01-19 18:50:00,
2013-01-19 13:57:00,73.4,56.8,30.13,ENE,57,4.0,17.0,56,0.00,,,0.00,VWS V14.01,2013-01-19 18:57:00,
2013-01-19 14:00:00,73.4,56.8,30.13,ENE,57,4.0,17.0,56,0.00,,,0.00,VWS V14.01,2013-01-19 19:00:00,
2013-01-19 14:07:00,73.7,57.0,30.13,NE,43,8.0,18.0,56,0.00,,,0.00,VWS V14.01,2013-01-19 19:07:00,
2013-01-19 14:10:00,73.7,57.0,30.13,NE,43,8.0,18.0,56,0.00,,,0.00,VWS V14.01,2013-01-19 19:10:00,
2013-01-19 14:17:00,73.6,57.0,30.12,ENE,63,6.0,13.0,56,0.00,,,0.00,VWS V14.01,2013-01-19 19:17:00,
2013-01-19 14:20:00,73.6,57.0,30.12,ENE,63,6.0,13.0,56,0.00,,,0.00,VWS V14.01,2013-01-19 19:20:00,
2013-01-19 14:28:00,74.0,56.8,30.11,ENE,62,7.0,18.0,55,0.00,,,0.00,VWS V14.01,2013-01-19 19:28:00,
2013-01-19 14:30:00,74.0,56.8,30.11,ENE,62,7.0,18.0,55,0.00,,,0.00,VWS V14.01,2013-01-19 19:30:00,
2013-01-19 14:38:00,73.4,56.8,30.11,North,9,11.0,19.0,56,0.00,,,0.00,VWS V14.01,2013-01-19 19:38:00,
2013-01-19 14:40:00,73.4,56.8,30.11,North,9,11.0,19.0,56,0.00,,,0.00,VWS V14.01,2013-01-19 19:40:00,
2013-01-19 14:47:00,73.3,56.2,30.11,East,96,9.0,19.0,55,0.00,,,0.00,VWS V14.01,2013-01-19 19:47:00,
2013-01-19 14:50:00,73.3,56.2,30.11,East,96,9.0,19.0,55,0.00,,,0.00,VWS V14.01,2013-01-19 19:50:00,
2013-01-19 14:57:00,73.4,56.8,30.11,NE,53,10.0,15.0,56,0.00,,,0.00,VWS V14.01,2013-01-19 19:57:00,
2013-01-19 15:00:00,73.4,56.8,30.11,NE,53,10.0,15.0,56,0.00,,,0.00,VWS V14.01,2013-01-19 20:00:00,
2013-01-19 15:10:00,73.7,56.5,30.11,ENE,57,10.0,14.0,55,0.00,,,0.00,VWS V14.01,2013-01-19 20:10:00,
2013-01-19 15:20:00,73.0,55.9,30.11,NE,55,8.0,15.0,55,0.00,,,0.00,VWS V14.01,2013-01-19 20:20:00,
2013-01-19 15:27:00,72.8,55.7,30.10,East,86,7.0,16.0,55,0.00,,,0.00,VWS V14.01,2013-01-19 20:27:00,
2013-01-19 15:30:00,72.8,55.7,30.10,East,86,7.0,16.0,55,0.00,,,0.00,VWS V14.01,2013-01-19 20:30:00,
2013-01-19 15:37:00,72.8,55.7,30.10,East,96,13.0,15.0,55,0.00,,,0.00,VWS V14.01,2013-01-19 20:37:00,
2013-01-19 15:40:00,72.8,55.7,30.10,East,96,13.0,15.0,55,0.00,,,0.00,VWS V14.01,2013-01-19 20:40:00,
2013-01-19 15:47:00,72.3,55.2,30.10,ENE,59,10.0,13.0,55,0.00,,,0.00,VWS V14.01,2013-01-19 20:47:00,
2013-01-19 15:50:00,72.3,55.2,30.10,ENE,59,10.0,13.0,55,0.00,,,0.00,VWS V14.01,2013-01-19 20:50:00,
2013-01-19 15:57:00,72.4,55.3,30.10,ENE,66,5.0,14.0,55,0.00,,,0.00,VWS V14.01,2013-01-19 20:57:00,
2013-01-19 16:00:00,72.4,55.3,30.10,ENE,66,5.0,14.0,55,0.00,,,0.00,VWS V14.01,2013-01-19 21:00:00,
2013-01-19 16:08:00,71.9,54.9,30.11,ENE,59,11.0,18.0,55,0.00,,,0.00,VWS V14.01,2013-01-19 21:08:00,
2013-01-19 16:10:00,71.9,54.9,30.11,ENE,59,11.0,18.0,55,0.00,,,0.00,VWS V14.01,2013-01-19 21:10:00,
2013-01-19 16:18:00,71.4,54.4,30.11,NE,55,4.0,13.0,55,0.00,,,0.00,VWS V14.01,2013-01-19 21:18:00,
2013-01-19 16:20:00,71.4,54.4,30.11,NE,55,4.0,13.0,55,0.00,,,0.00,VWS V14.01,2013-01-19 21:20:00,
2013-01-19 16:30:00,71.2,54.2,30.11,ENE,62,6.0,14.0,55,0.00,,,0.00,VWS V14.01,2013-01-19 21:30:00,
2013-01-19 16:37:00,71.2,54.2,30.11,ENE,66,2.0,10.0,55,0.00,,,0.00,VWS V14.01,2013-01-19 21:37:00,
2013-01-19 16:40:00,71.2,54.2,30.11,ENE,66,2.0,10.0,55,0.00,,,0.00,VWS V14.01,2013-01-19 21:40:00,
2013-01-19 16:50:00,71.2,54.2,30.11,East,96,9.0,11.0,55,0.00,,,0.00,VWS V14.01,2013-01-19 21:50:00,
2013-01-19 16:58:00,71.2,54.2,30.12,ENE,74,5.0,13.0,55,0.00,,,0.00,VWS V14.01,2013-01-19 21:58:00,
2013-01-19 17:00:00,71.2,54.2,30.12,ENE,74,5.0,13.0,55,0.00,,,0.00,VWS V14.01,2013-01-19 22:00:00,
2013-01-19 17:07:00,71.0,54.0,30.12,ENE,70,3.0,12.0,55,0.00,,,0.00,VWS V14.01,2013-01-19 22:07:00,
2013-01-19 17:10:00,71.0,54.0,30.12,ENE,70,3.0,12.0,55,0.00,,,0.00,VWS V14.01,2013-01-19 22:10:00,
2013-01-19 17:17:00,70.8,53.8,30.12,East,82,6.0,14.0,55,0.00,,,0.00,VWS V14.01,2013-01-19 22:17:00,
2013-01-19 17:20:00,70.8,53.8,30.12,East,82,6.0,14.0,55,0.00,,,0.00,VWS V14.01,2013-01-19 22:20:00,
2013-01-19 17:28:00,70.6,53.7,30.12,East,80,3.0,14.0,55,0.00,,,0.00,VWS V14.01,2013-01-19 22:28:00,
2013-01-19 17:30:00,70.6,53.7,30.12,East,80,3.0,14.0,55,0.00,,,0.00,VWS V14.01,2013-01-19 22:30:00,
2013-01-19 17:37:00,70.0,53.1,30.12,ENE,69,7.0,20.0,55,0.00,,,0.00,VWS V14.01,2013-01-19 22:37:00,
2013-01-19 17:40:00,70.0,53.1,30.12,ENE,69,7.0,20.0,55,0.00,,,0.00,VWS V14.01,2013-01-19 22:40:00,
2013-01-19 17:48:00,69.7,53.3,30.12,ENE,67,6.0,13.0,56,0.00,,,0.00,VWS V14.01,2013-01-19 22:48:00,
2013-01-19 17:50:00,69.7,53.3,30.12,ENE,67,6.0,13.0,56,0.00,,,0.00,VWS V14.01,2013-01-19 22:50:00,
2013-01-19 17:57:00,69.6,53.2,30.12,ENE,78,5.0,12.0,56,0.00,,,0.00,VWS V14.01,2013-01-19 22:57:00,
2013-01-19 18:00:00,69.6,53.2,30.12,ENE,78,5.0,12.0,56,0.00,,,0.00,VWS V14.01,2013-01-19 23:00:00,
2013-01-19 18:08:00,69.4,53.0,30.13,East,80,5.0,13.0,56,0.00,,,0.00,VWS V14.01,2013-01-19 23:08:00,
2013-01-19 18:10:00,69.4,53.0,30.13,East,80,5.0,13.0,56,0.00,,,0.00,VWS V14.01,2013-01-19 23:10:00,
2013-01-19 18:17:00,69.3,53.0,30.13,NE,50,7.0,16.0,56,0.00,,,0.00,VWS V14.01,2013-01-19 23:17:00,
2013-01-19 18:20:00,69.3,53.0,30.13,NE,50,7.0,16.0,56,0.00,,,0.00,VWS V14.01,2013-01-19 23:20:00,
2013-01-19 18:28:00,69.2,53.3,30.13,NE,49,12.0,13.0,57,0.00,,,0.00,VWS V14.01,2013-01-19 23:28:00,
2013-01-19 18:30:00,69.2,53.3,30.13,NE,49,12.0,13.0,57,0.00,,,0.00,VWS V14.01,2013-01-19 23:30:00,
2013-01-19 18:38:00,69.0,53.2,30.13,East,94,11.0,20.0,57,0.00,,,0.00,VWS V14.01,2013-01-19 23:38:00,
2013-01-19 18:40:00,69.0,53.2,30.13,East,94,11.0,20.0,57,0.00,,,0.00,VWS V14.01,2013-01-19 23:40:00,
2013-01-19 18:50:00,68.9,53.1,30.14,ENE,72,11.0,19.0,57,0.00,,,0.00,VWS V14.01,2013-01-19 23:50:00,
2013-01-19 18:58:00,68.7,53.3,30.14,ENE,62,5.0,13.0,58,0.00,,,0.00,VWS V14.01,2013-01-19 23:58:00,
2013-01-19 19:00:00,68.7,53.3,30.14,ENE,62,5.0,13.0,58,0.00,,,0.00,VWS V14.01,2013-01-20 00:00:00,
2013-01-19 19:07:00,68.5,53.2,30.14,NE,49,6.0,7.0,58,0.00,,,0.00,VWS V14.01,2013-01-20 00:07:00,
2013-01-19 19:10:00,68.5,53.2,30.14,NE,49,6.0,7.0,58,0.00,,,0.00,VWS V14.01,2013-01-20 00:10:00,
2013-01-19 19:17:00,68.3,53.0,30.14,East,79,4.0,10.0,58,0.00,,,0.00,VWS V14.01,2013-01-20 00:17:00,
2013-01-19 19:20:00,68.3,53.0,30.14,East,79,4.0,10.0,58,0.00,,,0.00,VWS V14.01,2013-01-20 00:20:00,
2013-01-19 19:27:00,68.1,53.2,30.14,ENE,65,4.0,11.0,59,0.00,,,0.00,VWS V14.01,2013-01-20 00:27:00,
2013-01-19 19:30:00,68.1,53.2,30.14,ENE,65,4.0,11.0,59,0.00,,,0.00,VWS V14.01,2013-01-20 00:30:00,
2013-01-19 19:37:00,68.0,53.2,30.14,East,83,10.0,11.0,59,0.00,,,0.00,VWS V14.01,2013-01-20 00:37:00,
2013-01-19 19:40:00,68.0,53.2,30.14,East,83,10.0,11.0,59,0.00,,,0.00,VWS V14.01,2013-01-20 00:40:00,
2013-01-19 19:47:00,67.8,53.4,30.14,ENE,62,4.0,11.0,60,0.00,,,0.00,VWS V14.01,2013-01-20 00:47:00,
2013-01-19 19:50:00,67.8,53.4,30.14,ENE,62,4.0,11.0,60,0.00,,,0.00,VWS V14.01,2013-01-20 00:50:00,
2013-01-19 19:57:00,67.6,53.2,30.15,ENE,62,7.0,11.0,60,0.00,,,0.00,VWS V14.01,2013-01-20 00:57:00,
2013-01-19 20:00:00,67.6,53.2,30.15,ENE,62,7.0,11.0,60,0.00,,,0.00,VWS V14.01,2013-01-20 01:00:00,
2013-01-19 20:07:00,67.4,53.5,30.15,East,83,5.0,11.0,61,0.00,,,0.00,VWS V14.01,2013-01-20 01:07:00,
2013-01-19 20:10:00,67.4,53.5,30.15,East,83,5.0,11.0,61,0.00,,,0.00,VWS V14.01,2013-01-20 01:10:00,
2013-01-19 20:20:00,67.3,53.4,30.15,ENE,76,2.0,10.0,61,0.00,,,0.00,VWS V14.01,2013-01-20 01:20:00,
2013-01-19 20:27:00,67.2,53.8,30.14,ENE,78,4.0,7.0,62,0.00,,,0.00,VWS V14.01,2013-01-20 01:27:00,
2013-01-19 20:30:00,67.2,53.8,30.14,ENE,78,4.0,7.0,62,0.00,,,0.00,VWS V14.01,2013-01-20 01:30:00,
2013-01-19 20:37:00,67.2,53.8,30.15,ENE,76,4.0,8.0,62,0.00,,,0.00,VWS V14.01,2013-01-20 01:37:00,
2013-01-19 20:40:00,67.2,53.8,30.15,ENE,76,4.0,8.0,62,0.00,,,0.00,VWS V14.01,2013-01-20 01:40:00,
2013-01-19 20:50:00,67.1,53.7,30.15,ENE,73,3.0,7.0,62,0.00,,,0.00,VWS V14.01,2013-01-20 01:50:00,
2013-01-19 20:58:00,66.9,53.9,30.14,NE,54,4.0,8.0,63,0.00,,,0.00,VWS V14.01,2013-01-20 01:58:00,
2013-01-19 21:00:00,66.9,53.9,30.14,NE,54,4.0,8.0,63,0.00,,,0.00,VWS V14.01,2013-01-20 02:00:00,
2013-01-19 21:07:00,66.7,53.7,30.14,ENE,66,3.0,7.0,63,0.00,,,0.00,VWS V14.01,2013-01-20 02:07:00,
2013-01-19 21:10:00,66.7,53.7,30.14,ENE,66,3.0,7.0,63,0.00,,,0.00,VWS V14.01,2013-01-20 02:10:00,
2013-01-19 21:17:00,66.4,53.4,30.14,NE,44,3.0,7.0,63,0.00,,,0.00,VWS V14.01,2013-01-20 02:17:00,
2013-01-19 21:20:00,66.4,53.4,30.14,NE,44,3.0,7.0,63,0.00,,,0.00,VWS V14.01,2013-01-20 02:20:00,
2013-01-19 21:30:00,66.2,53.7,30.14,ENE,65,6.0,8.0,64,0.00,,,0.00,VWS V14.01,2013-01-20 02:30:00,
2013-01-19 21:37:00,65.9,53.4,30.14,NE,42,6.0,8.0,64,0.00,,,0.00,VWS V14.01,2013-01-20 02:37:00,
2013-01-19 21:40:00,65.9,53.4,30.14,NE,42,6.0,8.0,64,0.00,,,0.00,VWS V14.01,2013-01-20 02:40:00,
2013-01-19 21:47:00,65.8,53.3,30.14,ENE,71,7.0,11.0,64,0.00,,,0.00,VWS V14.01,2013-01-20 02:47:00,
2013-01-19 21:50:00,65.8,53.3,30.14,ENE,71,7.0,11.0,64,0.00,,,0.00,VWS V14.01,2013-01-20 02:50:00,
2013-01-19 21:57:00,65.8,53.3,30.13,ENE,66,6.0,10.0,64,0.00,,,0.00,VWS V14.01,2013-01-20 02:57:00,
2013-01-19 22:00:00,65.8,53.3,30.13,ENE,66,6.0,10.0,64,0.00,,,0.00,VWS V14.01,2013-01-20 03:00:00,
2013-01-19 22:07:00,65.6,53.1,30.13,ENE,71,6.0,10.0,64,0.00,,,0.00,VWS V14.01,2013-01-20 03:07:00,
2013-01-19 22:10:00,65.6,53.1,30.13,ENE,71,6.0,10.0,64,0.00,,,0.00,VWS V14.01,2013-01-20 03:10:00,
2013-01-19 22:18:00,65.5,53.4,30.13,ENE,59,5.0,9.0,65,0.00,,,0.00,VWS V14.01,2013-01-20 03:18:00,
2013-01-19 22:20:00,65.5,53.4,30.13,ENE,59,5.0,9.0,65,0.00,,,0.00,VWS V14.01,2013-01-20 03:20:00,
2013-01-19 22:28:00,65.3,53.2,30.12,East,88,5.0,8.0,65,0.00,,,0.00,VWS V14.01,2013-01-20 03:28:00,
2013-01-19 22:30:00,65.3,53.2,30.12,East,88,5.0,8.0,65,0.00,,,0.00,VWS V14.01,2013-01-20 03:30:00,
2013-01-19 22:38:00,65.2,53.2,30.13,NE,34,4.0,8.0,65,0.00,,,0.00,VWS V14.01,2013-01-20 03:38:00,
2013-01-19 22:40:00,65.2,53.2,30.13,NE,34,4.0,8.0,65,0.00,,,0.00,VWS V14.01,2013-01-20 03:40:00,
2013-01-19 22:50:00,65.1,53.1,30.12,ENE,69,4.0,10.0,65,0.00,,,0.00,VWS V14.01,2013-01-20 03:50:00,
2013-01-19 22:58:00,65.0,53.0,30.11,NE,47,6.0,13.0,65,0.00,,,0.00,VWS V14.01,2013-01-20 03:58:00,
2013-01-19 23:00:00,65.0,53.0,30.11,NE,47,6.0,13.0,65,0.00,,,0.00,VWS V14.01,2013-01-20 04:00:00,
2013-01-19 23:08:00,64.9,52.9,30.12,NE,44,3.0,11.0,65,0.00,,,0.00,VWS V14.01,2013-01-20 04:08:00,
2013-01-19 23:10:00,64.9,52.9,30.12,NE,44,3.0,11.0,65,0.00,,,0.00,VWS V14.01,2013-01-20 04:10:00,
2013-01-19 23:20:00,64.9,52.9,30.12,NNE,24,7.0,12.0,65,0.00,,,0.00,VWS V14.01,2013-01-20 04:20:00,
2013-01-19 23:27:00,64.8,52.8,30.12,NNE,22,2.0,8.0,65,0.00,,,0.00,VWS V14.01,2013-01-20 04:27:00,
2013-01-19 23:30:00,64.8,52.8,30.12,NNE,22,2.0,8.0,65,0.00,,,0.00,VWS V14.01,2013-01-20 04:30:00,
2013-01-19 23:38:00,64.5,52.5,30.12,NNE,19,4.0,7.0,65,0.00,,,0.00,VWS V14.01,2013-01-20 04:38:00,
2013-01-19 23:40:00,64.5,52.5,30.12,NNE,19,4.0,7.0,65,0.00,,,0.00,VWS V14.01,2013-01-20 04:40:00,
2013-01-19 23:47:00,64.3,52.3,30.12,NNE,15,2.0,9.0,65,0.00,,,0.00,VWS V14.01,2013-01-20 04:47:00,
2013-01-19 23:50:00,64.3,52.3,30.12,NNE,15,2.0,9.0,65,0.00,,,0.00,VWS V14.01,2013-01-20 04:50:00,
2013-01-19 23:58:00,64.0,52.0,30.11,NE,42,4.0,8.0,65,0.00,,,0.00,VWS V14.01,2013-01-20 04:58:00,